Time;durP1;ratioP1;P1;durP2;ratioP2;P2;SDS_P1;SDS_P2;PMS_P1;PMS_P2;Temp;Humidity;BMP_temperature;BMP_pressure;BME280_temperature;BME280_humidity;BME280_pressure;Samples;Min_cycle;Max_cycle;Signal;HPM_P1;HPM_P2
2021/12/14 00:00:37;;;;;;;25.38;10.63;;;;;;;;;;4852759;29;20033;-85
2021/12/14 00:03:03;;;;;;;24.98;12.95;;;;;;;;;;4854039;29;20080;-85
2021/12/14 00:05:30;;;;;;;22.92;10.88;;;;;;;;;;4857175;29;20036;-85
2021/12/14 00:08:00;;;;;;;19.05;10.27;;;;;;;;;;4869956;29;20029;-85
2021/12/14 00:11:27;;;;;;;15.85;9.80;;;;;;;;;;4854451;29;20485;-85
2021/12/14 00:13:24;;;;;;;17.52;9.15;;;;;;;;;;4866281;29;20561;-85
2021/12/14 00:15:51;;;;;;;20.85;10.77;;;;;;;;;;4857157;29;20036;-85
2021/12/14 00:18:17;;;;;;;33.22;12.23;;;;;;;;;;4852936;29;20026;-83
2021/12/14 00:20:46;;;;;;;21.50;11.27;;;;;;;;;;4859335;29;20477;-84
2021/12/14 00:25:52;;;;;;;28.83;12.63;;;;;;;;;;4866680;29;20029;-85
2021/12/14 00:28:24;;;;;;;21.50;9.75;;;;;;;;;;4853773;29;20171;-85
2021/12/14 00:30:51;;;;;;;26.15;11.18;;;;;;;;;;4845436;29;20746;-86
2021/12/14 00:33:18;;;;;;;26.33;11.63;;;;;;;;;;4835724;29;20138;-83
2021/12/14 00:35:45;;;;;;;17.20;10.85;;;;;;;;;;4849176;29;20054;-84
2021/12/14 00:38:14;;;;;;;15.90;7.38;;;;;;;;;;4838130;29;20029;-84
2021/12/14 00:40:45;;;;;;;20.63;10.73;;;;;;;;;;4829417;29;20494;-84
2021/12/14 00:43:12;;;;;;;23.30;10.85;;;;;;;;;;4840194;29;20500;-85
2021/12/14 00:45:40;;;;;;;24.60;11.38;;;;;;;;;;4836523;29;20481;-85
2021/12/14 00:48:07;;;;;;;20.95;10.15;;;;;;;;;;4845251;29;20761;-85
2021/12/14 00:50:36;;;;;;;16.02;8.57;;;;;;;;;;4834632;29;20030;-79
2021/12/14 00:53:03;;;;;;;16.27;8.15;;;;;;;;;;4850667;29;20493;-81
2021/12/14 00:55:39;;;;;;;24.88;11.43;;;;;;;;;;4834045;29;20041;-79
2021/12/14 00:58:06;;;;;;;20.90;10.63;;;;;;;;;;4848436;29;20140;-80
2021/12/14 01:00:37;;;;;;;16.73;8.73;;;;;;;;;;4847771;29;20038;-80
2021/12/14 01:03:04;;;;;;;25.63;10.55;;;;;;;;;;4832007;29;20041;-80
2021/12/14 01:05:32;;;;;;;25.00;11.65;;;;;;;;;;4832753;29;20082;-81
2021/12/14 01:07:59;;;;;;;22.60;11.40;;;;;;;;;;4836231;29;20066;-81
2021/12/14 01:10:27;;;;;;;21.92;11.52;;;;;;;;;;4833598;29;20051;-85
2021/12/14 01:12:58;;;;;;;18.20;8.68;;;;;;;;;;4845437;29;20145;-85
2021/12/14 01:15:29;;;;;;;18.02;8.98;;;;;;;;;;4829072;29;20041;-85
2021/12/14 01:20:52;;;;;;;25.98;10.40;;;;;;;;;;4849049;29;20044;-85
2021/12/14 01:23:29;;;;;;;20.10;9.52;;;;;;;;;;4833948;29;20052;-83
2021/12/14 01:25:58;;;;;;;17.30;10.50;;;;;;;;;;4834836;29;20391;-85
2021/12/14 01:28:26;;;;;;;17.73;8.13;;;;;;;;;;4848441;29;20082;-85
2021/12/14 01:31:05;;;;;;;24.88;12.10;;;;;;;;;;4835478;29;20057;-83
2021/12/14 01:33:32;;;;;;;25.15;10.98;;;;;;;;;;4835039;29;20139;-85
2021/12/14 01:36:00;;;;;;;21.75;11.73;;;;;;;;;;4850292;29;20852;-85
2021/12/14 01:40:55;;;;;;;21.80;9.77;;;;;;;;;;4848547;29;20526;-85
2021/12/14 01:43:30;;;;;;;25.90;12.57;;;;;;;;;;4834111;29;20048;-85
2021/12/14 01:45:57;;;;;;;28.27;11.50;;;;;;;;;;4841317;29;20060;-85
2021/12/14 01:48:24;;;;;;;23.00;11.23;;;;;;;;;;4833614;29;20061;-85
2021/12/14 01:50:56;;;;;;;21.45;11.75;;;;;;;;;;4847444;29;20034;-85
2021/12/14 01:53:23;;;;;;;25.05;9.95;;;;;;;;;;4837361;29;20174;-83
2021/12/14 01:55:53;;;;;;;27.85;11.85;;;;;;;;;;4848601;29;20032;-84
2021/12/14 01:58:20;;;;;;;23.38;11.55;;;;;;;;;;4852384;29;20665;-85
2021/12/14 02:00:54;;;;;;;25.15;11.95;;;;;;;;;;4834692;29;20557;-86
2021/12/14 02:03:20;;;;;;;26.83;13.27;;;;;;;;;;4835103;29;20089;-85
2021/12/14 02:05:49;;;;;;;24.80;12.43;;;;;;;;;;4847437;29;20618;-83
2021/12/14 02:08:23;;;;;;;25.05;11.60;;;;;;;;;;4854046;29;20524;-85
2021/12/14 02:10:49;;;;;;;28.88;12.35;;;;;;;;;;4835664;29;20453;-85
2021/12/14 02:13:35;;;;;;;27.88;13.05;;;;;;;;;;4838913;29;20025;-84
2021/12/14 02:16:02;;;;;;;28.38;12.27;;;;;;;;;;4839487;29;20088;-85
2021/12/14 02:18:29;;;;;;;30.23;13.05;;;;;;;;;;4854003;29;20073;-82
2021/12/14 02:20:57;;;;;;;20.67;10.75;;;;;;;;;;4835089;29;20037;-84
2021/12/14 02:23:24;;;;;;;27.65;13.10;;;;;;;;;;4835016;29;20279;-85
2021/12/14 02:25:51;;;;;;;28.23;13.15;;;;;;;;;;4849099;29;20640;-84
2021/12/14 02:28:20;;;;;;;28.42;13.10;;;;;;;;;;4836010;29;20149;-85
2021/12/14 02:30:47;;;;;;;23.10;9.77;;;;;;;;;;4843444;29;20053;-83
2021/12/14 02:33:15;;;;;;;24.85;13.82;;;;;;;;;;4869930;29;22299;-85
2021/12/14 02:35:49;;;;;;;33.70;13.65;;;;;;;;;;4867299;29;20073;-83
2021/12/14 02:38:17;;;;;;;26.73;11.95;;;;;;;;;;4836444;29;20037;-84
2021/12/14 02:40:58;;;;;;;37.08;14.25;;;;;;;;;;4851012;29;20041;-84
2021/12/14 02:43:27;;;;;;;27.27;11.75;;;;;;;;;;4867350;29;20376;-84
2021/12/14 02:46:00;;;;;;;30.23;16.00;;;;;;;;;;4854562;29;20120;-83
2021/12/14 02:48:26;;;;;;;33.78;15.38;;;;;;;;;;4837260;29;20364;-85
2021/12/14 02:50:52;;;;;;;38.22;16.52;;;;;;;;;;4853711;29;20041;-83
2021/12/14 02:53:18;;;;;;;37.05;16.50;;;;;;;;;;4866250;29;20033;-85
2021/12/14 02:55:44;;;;;;;35.60;15.07;;;;;;;;;;4857912;29;20124;-83
2021/12/14 02:58:10;;;;;;;31.00;15.98;;;;;;;;;;4865584;29;20033;-85
2021/12/14 03:00:40;;;;;;;33.35;14.55;;;;;;;;;;4873232;29;20037;-84
2021/12/14 03:03:07;;;;;;;24.42;10.93;;;;;;;;;;4853600;29;20031;-85
2021/12/14 03:05:35;;;;;;;34.42;17.60;;;;;;;;;;4855422;29;20045;-85
2021/12/14 03:08:08;;;;;;;36.20;16.60;;;;;;;;;;4855954;29;20485;-85
2021/12/14 03:10:51;;;;;;;31.52;15.73;;;;;;;;;;4852759;29;20140;-85
2021/12/14 03:13:17;;;;;;;32.42;15.80;;;;;;;;;;4855326;29;20486;-84
2021/12/14 03:15:48;;;;;;;30.55;14.82;;;;;;;;;;4867098;29;20066;-85
2021/12/14 03:18:15;;;;;;;32.22;14.20;;;;;;;;;;4838920;29;20027;-85
2021/12/14 03:20:53;;;;;;;34.00;16.92;;;;;;;;;;4865974;29;20037;-85
2021/12/14 03:23:21;;;;;;;34.55;13.55;;;;;;;;;;4862959;29;20042;-84
2021/12/14 03:25:49;;;;;;;31.77;13.40;;;;;;;;;;4838006;29;20055;-84
2021/12/14 03:28:16;;;;;;;33.58;17.40;;;;;;;;;;4865984;29;20550;-83
2021/12/14 03:30:55;;;;;;;22.75;11.43;;;;;;;;;;4861675;29;20085;-85
2021/12/14 03:33:26;;;;;;;37.22;16.60;;;;;;;;;;4853814;29;20249;-85
2021/12/14 03:36:24;;;;;;;23.38;11.07;;;;;;;;;;4873895;29;20043;-83
2021/12/14 03:39:10;;;;;;;31.70;15.88;;;;;;;;;;4830654;29;20041;-83
2021/12/14 03:41:48;;;;;;;22.73;10.77;;;;;;;;;;4867266;29;20583;-84
2021/12/14 03:44:34;;;;;;;37.28;15.60;;;;;;;;;;4857871;29;20064;-84
2021/12/14 03:47:06;;;;;;;34.22;17.10;;;;;;;;;;4853420;29;20516;-84
2021/12/14 03:49:38;;;;;;;29.45;16.13;;;;;;;;;;4869406;29;20059;-85
2021/12/14 03:52:07;;;;;;;26.20;11.20;;;;;;;;;;4855526;29;20057;-79
2021/12/14 03:54:33;;;;;;;38.15;16.52;;;;;;;;;;4872526;29;20039;-80
2021/12/14 03:56:59;;;;;;;27.85;14.50;;;;;;;;;;4849316;29;20063;-80
2021/12/14 03:59:30;;;;;;;22.15;11.40;;;;;;;;;;4852720;29;20048;-80
2021/12/14 04:01:57;;;;;;;30.50;13.15;;;;;;;;;;4857538;29;20043;-80
2021/12/14 04:04:26;;;;;;;22.05;11.25;;;;;;;;;;4858164;29;20037;-80
2021/12/14 04:06:54;;;;;;;27.13;13.65;;;;;;;;;;4865082;29;20037;-80
2021/12/14 04:09:22;;;;;;;37.85;17.90;;;;;;;;;;4852973;29;20397;-80
2021/12/14 04:11:48;;;;;;;44.03;16.58;;;;;;;;;;4852071;29;20119;-78
2021/12/14 04:14:15;;;;;;;36.25;17.67;;;;;;;;;;4867771;29;20033;-79
2021/12/14 04:16:44;;;;;;;31.52;15.55;;;;;;;;;;4853585;29;20035;-79
2021/12/14 04:19:12;;;;;;;43.53;17.95;;;;;;;;;;4854206;29;20438;-80
2021/12/14 04:21:40;;;;;;;25.42;12.23;;;;;;;;;;4851469;29;20047;-80
2021/12/14 04:24:07;;;;;;;39.80;16.70;;;;;;;;;;4855710;29;20033;-79
2021/12/14 04:26:34;;;;;;;20.88;9.63;;;;;;;;;;4853105;29;20036;-79
2021/12/14 04:29:01;;;;;;;35.85;17.92;;;;;;;;;;4869721;29;20044;-79
2021/12/14 04:31:42;;;;;;;24.65;11.18;;;;;;;;;;4852641;29;20132;-81
2021/12/14 04:34:08;;;;;;;36.65;18.25;;;;;;;;;;4870010;29;20060;-79
2021/12/14 04:36:35;;;;;;;35.67;18.05;;;;;;;;;;4853798;29;20025;-80
2021/12/14 04:39:28;;;;;;;34.95;18.00;;;;;;;;;;4852319;29;20060;-80
2021/12/14 04:53:12;;;;;;;44.58;18.70;;;;;;;;;;4866449;29;20124;-81
2021/12/14 04:55:40;;;;;;;41.97;19.90;;;;;;;;;;4868611;29;20060;-80
2021/12/14 04:58:06;;;;;;;43.08;16.73;;;;;;;;;;4865364;29;20037;-79
2021/12/14 05:00:42;;;;;;;44.58;19.45;;;;;;;;;;4853455;29;20041;-81
2021/12/14 05:03:13;;;;;;;36.58;14.70;;;;;;;;;;4865822;29;22330;-80
2021/12/14 05:05:47;;;;;;;36.50;16.95;;;;;;;;;;4867623;29;20032;-80
2021/12/14 05:10:57;;;;;;;48.95;20.30;;;;;;;;;;4866878;29;20040;-80
2021/12/14 05:13:28;;;;;;;45.97;21.48;;;;;;;;;;4850801;29;20033;-80
2021/12/14 05:15:55;;;;;;;43.60;20.77;;;;;;;;;;4851279;29;20695;-79
2021/12/14 05:18:24;;;;;;;42.13;19.75;;;;;;;;;;4869163;29;20474;-80
2021/12/14 05:20:50;;;;;;;27.30;11.65;;;;;;;;;;4854099;29;20040;-79
2021/12/14 05:23:20;;;;;;;49.85;19.30;;;;;;;;;;4850902;29;20036;-79
2021/12/14 05:25:46;;;;;;;49.30;20.92;;;;;;;;;;4849203;29;20061;-80
2021/12/14 05:28:15;;;;;;;29.85;14.05;;;;;;;;;;4853894;29;20155;-79
2021/12/14 05:30:44;;;;;;;40.97;19.80;;;;;;;;;;4852771;29;20139;-80
2021/12/14 05:33:18;;;;;;;35.17;14.55;;;;;;;;;;4850141;29;20106;-80
2021/12/14 05:35:46;;;;;;;40.88;17.17;;;;;;;;;;4833940;29;20379;-78
2021/12/14 05:38:16;;;;;;;27.17;13.88;;;;;;;;;;4849644;29;20458;-80
2021/12/14 05:43:22;;;;;;;44.10;17.77;;;;;;;;;;4856419;29;20049;-79
2021/12/14 05:45:51;;;;;;;25.90;12.63;;;;;;;;;;4836171;29;20305;-83
2021/12/14 05:48:19;;;;;;;46.75;19.42;;;;;;;;;;4854710;29;20034;-84
2021/12/14 05:50:46;;;;;;;47.78;21.15;;;;;;;;;;4839783;29;20537;-82
2021/12/14 05:53:20;;;;;;;32.17;14.60;;;;;;;;;;4839309;29;20398;-85
2021/12/14 05:55:47;;;;;;;40.80;19.40;;;;;;;;;;4838686;29;20029;-83
2021/12/14 05:58:15;;;;;;;42.05;19.52;;;;;;;;;;4845355;29;20034;-85
2021/12/14 06:00:44;;;;;;;46.30;17.02;;;;;;;;;;4838013;29;20089;-85
2021/12/14 06:03:15;;;;;;;45.08;20.90;;;;;;;;;;4837443;29;20113;-85
2021/12/14 06:05:41;;;;;;;49.90;22.38;;;;;;;;;;4842931;29;20431;-84
2021/12/14 06:08:07;;;;;;;48.17;23.05;;;;;;;;;;4837503;29;20680;-84
2021/12/14 06:10:33;;;;;;;71.05;21.10;;;;;;;;;;4840711;29;20037;-85
2021/12/14 06:12:59;;;;;;;45.42;20.17;;;;;;;;;;4855081;29;20786;-84
2021/12/14 06:15:28;;;;;;;48.20;18.60;;;;;;;;;;4838129;29;20033;-83
2021/12/14 06:17:54;;;;;;;42.85;20.95;;;;;;;;;;4836917;29;20040;-85
2021/12/14 06:20:22;;;;;;;41.85;18.58;;;;;;;;;;4837316;29;20042;-85
2021/12/14 06:22:52;;;;;;;31.02;15.70;;;;;;;;;;4856457;29;20030;-85
2021/12/14 06:25:20;;;;;;;52.20;21.67;;;;;;;;;;4837270;29;20025;-82
2021/12/14 06:27:47;;;;;;;36.55;15.30;;;;;;;;;;4850910;29;20390;-85
2021/12/14 06:30:24;;;;;;;47.80;21.63;;;;;;;;;;4852639;29;20038;-84
2021/12/14 06:32:55;;;;;;;46.88;21.08;;;;;;;;;;4871681;29;20116;-84
2021/12/14 06:35:24;;;;;;;52.00;21.50;;;;;;;;;;4861512;29;20048;-84
2021/12/14 06:38:09;;;;;;;45.33;22.27;;;;;;;;;;4858537;29;20362;-84
2021/12/14 06:40:47;;;;;;;45.33;20.85;;;;;;;;;;4871429;29;20568;-85
2021/12/14 06:43:15;;;;;;;42.40;19.52;;;;;;;;;;4854465;29;20045;-85
2021/12/14 06:45:43;;;;;;;43.05;19.35;;;;;;;;;;4869637;29;20041;-84
2021/12/14 06:48:11;;;;;;;51.80;21.13;;;;;;;;;;4855269;29;20057;-85
2021/12/14 06:50:42;;;;;;;49.08;20.33;;;;;;;;;;4870775;29;20033;-85
2021/12/14 06:53:12;;;;;;;47.13;19.50;;;;;;;;;;4854353;29;20517;-85
2021/12/14 06:55:38;;;;;;;42.72;18.55;;;;;;;;;;4856740;29;20043;-82
2021/12/14 06:58:06;;;;;;;49.22;23.83;;;;;;;;;;4868152;29;20169;-84
2021/12/14 07:00:32;;;;;;;36.13;16.98;;;;;;;;;;4853398;29;20029;-85
2021/12/14 07:02:58;;;;;;;45.10;20.95;;;;;;;;;;4854756;29;20033;-85
2021/12/14 07:05:26;;;;;;;49.72;21.40;;;;;;;;;;4868654;29;20021;-84
2021/12/14 07:07:52;;;;;;;37.78;14.90;;;;;;;;;;4869961;29;20033;-84
2021/12/14 07:10:19;;;;;;;51.83;21.08;;;;;;;;;;4868594;29;20037;-84
2021/12/14 07:12:45;;;;;;;29.50;13.65;;;;;;;;;;4857062;29;20121;-86
2021/12/14 07:15:15;;;;;;;46.72;19.27;;;;;;;;;;4846704;29;20036;-84
2021/12/14 07:17:45;;;;;;;53.35;21.30;;;;;;;;;;4853231;29;20028;-83
2021/12/14 07:20:14;;;;;;;47.80;22.17;;;;;;;;;;4870388;29;20029;-84
2021/12/14 07:22:42;;;;;;;46.45;21.80;;;;;;;;;;4867708;29;20062;-83
2021/12/14 07:25:13;;;;;;;54.72;22.38;;;;;;;;;;4854647;29;20485;-84
2021/12/14 07:27:40;;;;;;;39.20;16.05;;;;;;;;;;4852525;29;20043;-85
2021/12/14 07:30:18;;;;;;;44.88;20.38;;;;;;;;;;4869441;29;20031;-84
2021/12/14 07:32:54;;;;;;;55.50;21.20;;;;;;;;;;4856694;29;20058;-83
2021/12/14 07:35:26;;;;;;;49.10;20.38;;;;;;;;;;4848000;29;20486;-84
2021/12/14 07:37:53;;;;;;;55.95;25.70;;;;;;;;;;4837029;29;20525;-83
2021/12/14 07:40:21;;;;;;;54.17;24.27;;;;;;;;;;4826533;29;20121;-83
2021/12/14 07:42:47;;;;;;;47.05;21.98;;;;;;;;;;4851326;29;20164;-80
2021/12/14 07:45:23;;;;;;;55.67;23.75;;;;;;;;;;4834332;29;20082;-84
2021/12/14 07:47:50;;;;;;;65.57;25.30;;;;;;;;;;4849848;29;20061;-84
2021/12/14 07:50:16;;;;;;;57.85;22.45;;;;;;;;;;4850363;29;20498;-84
2021/12/14 07:52:43;;;;;;;46.85;18.98;;;;;;;;;;4836402;29;20046;-83
2021/12/14 07:55:12;;;;;;;63.70;24.15;;;;;;;;;;4834302;29;20394;-84
2021/12/14 07:57:39;;;;;;;61.28;24.75;;;;;;;;;;4834607;29;20635;-84
2021/12/14 08:00:17;;;;;;;67.10;25.10;;;;;;;;;;4835903;29;20507;-84
2021/12/14 08:02:45;;;;;;;63.97;24.98;;;;;;;;;;4847856;29;20040;-85
2021/12/14 08:05:20;;;;;;;62.47;25.05;;;;;;;;;;4837517;29;20137;-84
2021/12/14 08:07:48;;;;;;;57.58;24.33;;;;;;;;;;4846303;29;20044;-85
2021/12/14 08:10:21;;;;;;;73.30;26.85;;;;;;;;;;4836869;29;20033;-84
2021/12/14 08:13:07;;;;;;;64.88;22.77;;;;;;;;;;4831438;29;20029;-81
2021/12/14 08:15:41;;;;;;;79.60;25.65;;;;;;;;;;4829519;29;20453;-81
2021/12/14 08:18:12;;;;;;;77.13;29.63;;;;;;;;;;4836806;29;20072;-80
2021/12/14 08:20:57;;;;;;;65.97;25.15;;;;;;;;;;4849684;29;20076;-80
2021/12/14 08:23:35;;;;;;;73.53;25.90;;;;;;;;;;4835106;29;20034;-80
2021/12/14 08:26:07;;;;;;;74.35;28.10;;;;;;;;;;4832175;29;20102;-80
2021/12/14 08:28:44;;;;;;;74.10;28.30;;;;;;;;;;4843638;29;20026;-81
2021/12/14 08:31:11;;;;;;;76.93;28.58;;;;;;;;;;4848217;29;20049;-81
2021/12/14 08:33:37;;;;;;;83.10;29.38;;;;;;;;;;4853236;29;20037;-81
2021/12/14 08:36:05;;;;;;;72.18;26.48;;;;;;;;;;4854738;29;20043;-80
2021/12/14 08:38:33;;;;;;;76.18;29.77;;;;;;;;;;4853818;29;20490;-80
2021/12/14 08:41:11;;;;;;;72.90;29.50;;;;;;;;;;4848364;29;20033;-80
2021/12/14 08:43:45;;;;;;;80.00;29.08;;;;;;;;;;4867083;29;20025;-80
2021/12/14 08:46:13;;;;;;;73.30;27.05;;;;;;;;;;4867074;29;20029;-80
2021/12/14 08:48:41;;;;;;;70.47;23.92;;;;;;;;;;4854233;29;20522;-80
2021/12/14 08:51:13;;;;;;;77.82;26.83;;;;;;;;;;4854474;29;20065;-81
2021/12/14 08:53:40;;;;;;;90.28;32.72;;;;;;;;;;4865156;29;20056;-79
2021/12/14 08:56:08;;;;;;;72.90;29.08;;;;;;;;;;4849179;29;20413;-81
2021/12/14 08:58:35;;;;;;;92.55;31.55;;;;;;;;;;4868537;29;20222;-80
2021/12/14 09:01:06;;;;;;;85.97;29.60;;;;;;;;;;4847929;29;20041;-81
2021/12/14 09:03:35;;;;;;;93.85;32.03;;;;;;;;;;4852767;29;20037;-81
2021/12/14 09:06:04;;;;;;;71.55;26.63;;;;;;;;;;4849248;29;20033;-81
2021/12/14 09:08:30;;;;;;;89.30;31.42;;;;;;;;;;4851324;29;20048;-82
2021/12/14 09:10:58;;;;;;;89.63;30.85;;;;;;;;;;4852471;29;20033;-80
2021/12/14 09:13:24;;;;;;;68.63;26.45;;;;;;;;;;4863577;29;20051;-81
2021/12/14 09:15:52;;;;;;;83.63;27.98;;;;;;;;;;4852065;29;20040;-80
2021/12/14 09:18:19;;;;;;;83.72;31.55;;;;;;;;;;4848221;29;20556;-80
2021/12/14 09:20:45;;;;;;;81.60;29.73;;;;;;;;;;4865028;29;20500;-81
2021/12/14 09:23:14;;;;;;;81.03;29.45;;;;;;;;;;4861417;29;20129;-81
2021/12/14 09:25:41;;;;;;;90.07;31.50;;;;;;;;;;4869197;29;20025;-80
2021/12/14 09:28:07;;;;;;;63.90;23.75;;;;;;;;;;4861372;29;20059;-79
2021/12/14 09:30:43;;;;;;;82.60;30.60;;;;;;;;;;4866262;29;20084;-81
2021/12/14 09:33:10;;;;;;;85.10;28.58;;;;;;;;;;4850232;29;20080;-81
2021/12/14 09:35:37;;;;;;;85.47;30.25;;;;;;;;;;4863908;29;20045;-80
2021/12/14 09:38:05;;;;;;;67.32;23.73;;;;;;;;;;4852908;29;21369;-79
2021/12/14 09:40:44;;;;;;;78.20;32.47;;;;;;;;;;4851011;29;20045;-80
2021/12/14 09:43:10;;;;;;;77.03;29.30;;;;;;;;;;4868012;29;20029;-81
2021/12/14 09:45:42;;;;;;;61.53;23.60;;;;;;;;;;4848944;29;20116;-81
2021/12/14 09:48:09;;;;;;;58.22;21.48;;;;;;;;;;4868481;29;20021;-80
2021/12/14 09:50:36;;;;;;;74.57;26.63;;;;;;;;;;4850280;29;20565;-81
2021/12/14 09:53:04;;;;;;;80.32;30.52;;;;;;;;;;4852666;29;20835;-80
2021/12/14 09:55:32;;;;;;;86.50;29.48;;;;;;;;;;4862201;29;20029;-80
2021/12/14 09:58:00;;;;;;;66.22;25.38;;;;;;;;;;4870069;29;20040;-81
2021/12/14 10:00:31;;;;;;;76.72;29.65;;;;;;;;;;4869138;29;20059;-81
2021/12/14 10:02:59;;;;;;;57.33;22.90;;;;;;;;;;4847296;29;20033;-80
2021/12/14 10:05:29;;;;;;;32.47;13.45;;;;;;;;;;4866804;29;20283;-80
2021/12/14 10:07:56;;;;;;;55.33;25.00;;;;;;;;;;4848563;29;20079;-80
2021/12/14 10:10:23;;;;;;;69.55;26.98;;;;;;;;;;4868034;29;20588;-80
2021/12/14 10:12:50;;;;;;;47.20;20.33;;;;;;;;;;4850233;29;20132;-80
2021/12/14 10:15:20;;;;;;;52.22;23.60;;;;;;;;;;4849540;29;20128;-80
2021/12/14 10:17:46;;;;;;;77.03;28.27;;;;;;;;;;4865294;29;20060;-80
2021/12/14 10:20:14;;;;;;;59.63;23.60;;;;;;;;;;4866120;29;20037;-81
2021/12/14 10:22:51;;;;;;;74.15;27.25;;;;;;;;;;4850784;29;20104;-81
2021/12/14 10:25:19;;;;;;;66.20;24.75;;;;;;;;;;4867421;29;20441;-80
2021/12/14 10:27:46;;;;;;;69.53;26.25;;;;;;;;;;4871967;29;20489;-81
2021/12/14 10:30:17;;;;;;;62.90;25.85;;;;;;;;;;4851729;29;20051;-81
2021/12/14 10:32:43;;;;;;;67.22;25.17;;;;;;;;;;4848702;29;20045;-81
2021/12/14 10:35:11;;;;;;;68.60;25.38;;;;;;;;;;4834479;29;20036;-80
2021/12/14 10:37:52;;;;;;;63.72;25.92;;;;;;;;;;4851188;29;20025;-81
2021/12/14 10:43:13;;;;;;;60.85;24.35;;;;;;;;;;4850491;29;20045;-79
2021/12/14 10:45:42;;;;;;;63.22;26.73;;;;;;;;;;4849069;29;20045;-81
2021/12/14 10:48:08;;;;;;;57.08;22.00;;;;;;;;;;4833500;29;20034;-81
2021/12/14 10:50:36;;;;;;;70.57;28.52;;;;;;;;;;4838267;29;20105;-80
2021/12/14 10:53:04;;;;;;;68.03;25.65;;;;;;;;;;4833635;29;20128;-81
2021/12/14 10:55:41;;;;;;;38.55;15.20;;;;;;;;;;4845147;29;20038;-81
2021/12/14 10:58:08;;;;;;;63.88;25.40;;;;;;;;;;4833549;29;20084;-80
2021/12/14 11:00:39;;;;;;;44.45;17.55;;;;;;;;;;4848550;29;20750;-81
2021/12/14 11:03:09;;;;;;;60.47;25.13;;;;;;;;;;4850167;29;20501;-80
2021/12/14 11:05:37;;;;;;;67.35;24.45;;;;;;;;;;4850902;29;20596;-81
2021/12/14 11:08:04;;;;;;;56.17;23.52;;;;;;;;;;4836500;29;20033;-81
2021/12/14 11:10:36;;;;;;;50.45;21.88;;;;;;;;;;4832334;29;20037;-80
2021/12/14 11:13:08;;;;;;;51.20;19.65;;;;;;;;;;4849271;29;20085;-81
2021/12/14 11:15:36;;;;;;;47.33;19.13;;;;;;;;;;4836526;29;20037;-80
2021/12/14 11:18:09;;;;;;;52.13;21.10;;;;;;;;;;4846030;29;20034;-81
2021/12/14 11:20:39;;;;;;;63.58;25.33;;;;;;;;;;4829610;29;20030;-80
2021/12/14 11:23:11;;;;;;;70.88;25.52;;;;;;;;;;4843376;29;20136;-80
2021/12/14 11:25:52;;;;;;;67.65;23.95;;;;;;;;;;4851829;29;20038;-80
2021/12/14 11:28:24;;;;;;;55.55;20.63;;;;;;;;;;4833960;29;20034;-80
2021/12/14 11:31:18;;;;;;;58.85;24.13;;;;;;;;;;4845894;29;20913;-80
2021/12/14 11:33:49;;;;;;;61.05;22.30;;;;;;;;;;4871233;29;20060;-80
2021/12/14 11:36:36;;;;;;;62.00;20.83;;;;;;;;;;4863974;29;20049;-80
2021/12/14 11:39:08;;;;;;;60.30;22.55;;;;;;;;;;4865737;29;20077;-80
2021/12/14 11:41:40;;;;;;;48.28;17.98;;;;;;;;;;4863545;29;20033;-81
2021/12/14 11:44:27;;;;;;;47.50;17.50;;;;;;;;;;4868564;29;20076;-80
2021/12/14 11:46:54;;;;;;;64.00;24.92;;;;;;;;;;4845411;29;20443;-82
2021/12/14 11:49:21;;;;;;;65.93;23.88;;;;;;;;;;4847325;29;20719;-80
2021/12/14 11:51:48;;;;;;;50.10;21.98;;;;;;;;;;4853249;29;20041;-81
2021/12/14 11:54:19;;;;;;;49.97;19.73;;;;;;;;;;4848295;29;20041;-81
2021/12/14 11:56:46;;;;;;;59.17;22.73;;;;;;;;;;4855257;29;20037;-82
2021/12/14 11:59:13;;;;;;;56.95;22.33;;;;;;;;;;4864316;29;21085;-80
2021/12/14 12:01:46;;;;;;;53.20;21.58;;;;;;;;;;4851145;29;20525;-80
2021/12/14 12:04:15;;;;;;;59.38;23.05;;;;;;;;;;4851849;29;20518;-79
2021/12/14 12:11:55;;;;;;;47.60;18.77;;;;;;;;;;4862097;29;20075;-80
2021/12/14 12:14:27;;;;;;;41.70;15.82;;;;;;;;;;4849627;29;20127;-81
2021/12/14 12:16:57;;;;;;;46.60;20.23;;;;;;;;;;4866604;29;20040;-80
2021/12/14 12:19:28;;;;;;;43.00;17.58;;;;;;;;;;4850997;29;20085;-80
2021/12/14 12:21:55;;;;;;;45.08;17.75;;;;;;;;;;4853404;29;20028;-80
2021/12/14 12:24:50;;;;;;;39.10;16.27;;;;;;;;;;4850688;29;20037;-80
2021/12/14 12:27:35;;;;;;;40.42;17.27;;;;;;;;;;4843464;29;20037;-81
2021/12/14 12:30:10;;;;;;;40.58;15.98;;;;;;;;;;4852811;29;20067;-80
2021/12/14 12:32:37;;;;;;;48.22;19.67;;;;;;;;;;4867824;29;20060;-80
2021/12/14 12:35:19;;;;;;;45.80;18.50;;;;;;;;;;4866985;29;20604;-80
2021/12/14 12:37:45;;;;;;;42.00;17.17;;;;;;;;;;4853178;29;20032;-80
2021/12/14 12:40:14;;;;;;;41.40;16.75;;;;;;;;;;4851202;29;20028;-81
2021/12/14 12:42:40;;;;;;;56.70;18.25;;;;;;;;;;4867749;29;20029;-81
2021/12/14 12:45:24;;;;;;;36.67;13.90;;;;;;;;;;4850314;29;20040;-81
2021/12/14 12:47:50;;;;;;;34.42;13.60;;;;;;;;;;4855042;29;20670;-80
2021/12/14 12:50:16;;;;;;;40.55;15.70;;;;;;;;;;4856109;29;20040;-81
2021/12/14 12:52:43;;;;;;;30.85;12.45;;;;;;;;;;4850656;29;20033;-81
2021/12/14 12:55:18;;;;;;;41.95;15.57;;;;;;;;;;4852497;29;20489;-81
2021/12/14 12:57:45;;;;;;;30.02;11.63;;;;;;;;;;4854319;29;20182;-81
2021/12/14 13:00:15;;;;;;;37.92;13.77;;;;;;;;;;4851438;29;20060;-82
2021/12/14 13:02:41;;;;;;;38.05;14.25;;;;;;;;;;4851916;29;20039;-81
2021/12/14 13:05:09;;;;;;;40.80;14.20;;;;;;;;;;4854835;29;20760;-81
2021/12/14 13:07:35;;;;;;;35.03;12.38;;;;;;;;;;4865477;29;20111;-81
2021/12/14 13:10:10;;;;;;;50.13;14.60;;;;;;;;;;4848972;29;20153;-81
2021/12/14 13:12:49;;;;;;;41.38;15.15;;;;;;;;;;4854171;29;20544;-81
2021/12/14 13:15:27;;;;;;;44.33;15.55;;;;;;;;;;4868919;29;20060;-80
2021/12/14 13:18:12;;;;;;;43.45;14.10;;;;;;;;;;4854524;29;20033;-82
2021/12/14 13:20:38;;;;;;;43.55;15.30;;;;;;;;;;4859208;29;20049;-81
2021/12/14 13:23:05;;;;;;;35.33;12.88;;;;;;;;;;4852078;29;20061;-81
2021/12/14 13:25:35;;;;;;;43.28;13.95;;;;;;;;;;4855365;29;20029;-80
2021/12/14 13:28:01;;;;;;;40.72;16.05;;;;;;;;;;4840360;29;20045;-81
2021/12/14 13:30:28;;;;;;;47.42;15.07;;;;;;;;;;4854025;29;20033;-81
2021/12/14 13:33:00;;;;;;;47.97;15.00;;;;;;;;;;4845757;29;20077;-82
2021/12/14 13:35:35;;;;;;;39.33;13.80;;;;;;;;;;4845787;29;20030;-81
2021/12/14 13:38:07;;;;;;;29.42;11.63;;;;;;;;;;4832500;29;20121;-81
2021/12/14 13:40:38;;;;;;;40.10;13.23;;;;;;;;;;4849008;29;20060;-82
2021/12/14 13:43:07;;;;;;;44.17;13.80;;;;;;;;;;4841557;29;20037;-82
2021/12/14 13:45:36;;;;;;;41.03;14.65;;;;;;;;;;4830396;29;20042;-82
2021/12/14 13:48:03;;;;;;;41.17;13.43;;;;;;;;;;4831599;29;20553;-81
2021/12/14 13:50:32;;;;;;;40.67;14.32;;;;;;;;;;4828506;29;20105;-81
2021/12/14 13:52:58;;;;;;;40.95;14.68;;;;;;;;;;4844993;29;20101;-81
2021/12/14 13:55:28;;;;;;;43.10;15.88;;;;;;;;;;4831412;29;20662;-81
2021/12/14 13:58:02;;;;;;;40.67;13.52;;;;;;;;;;4842570;29;20562;-81
2021/12/14 14:00:34;;;;;;;44.50;14.98;;;;;;;;;;4841452;29;20493;-82
2021/12/14 14:03:00;;;;;;;36.30;12.02;;;;;;;;;;4831912;29;20097;-82
2021/12/14 14:05:27;;;;;;;37.72;12.90;;;;;;;;;;4849892;29;20030;-82
2021/12/14 14:07:56;;;;;;;41.72;14.00;;;;;;;;;;4833624;29;20033;-81
2021/12/14 14:10:22;;;;;;;28.55;11.25;;;;;;;;;;4847069;29;20065;-81
2021/12/14 14:12:51;;;;;;;30.35;10.95;;;;;;;;;;4833717;29;20625;-81
2021/12/14 14:15:22;;;;;;;32.08;9.75;;;;;;;;;;4845139;29;20071;-81
2021/12/14 14:17:50;;;;;;;23.92;8.60;;;;;;;;;;4833234;29;20041;-82
2021/12/14 14:20:20;;;;;;;47.83;14.85;;;;;;;;;;4830429;29;20041;-81
2021/12/14 14:22:46;;;;;;;48.60;14.85;;;;;;;;;;4850027;29;20653;-82
2021/12/14 14:25:17;;;;;;;52.97;16.98;;;;;;;;;;4846236;29;20057;-82
2021/12/14 14:27:45;;;;;;;54.90;17.92;;;;;;;;;;4846909;29;20037;-82
2021/12/14 14:30:26;;;;;;;56.92;17.38;;;;;;;;;;4830687;29;20033;-82
2021/12/14 14:33:21;;;;;;;53.63;15.52;;;;;;;;;;4841538;29;20042;-83
2021/12/14 14:36:03;;;;;;;43.03;14.32;;;;;;;;;;4854715;29;20044;-81
2021/12/14 14:38:32;;;;;;;64.80;17.75;;;;;;;;;;4866767;29;20517;-82
2021/12/14 14:41:11;;;;;;;48.95;17.25;;;;;;;;;;4867098;29;20131;-82
2021/12/14 14:43:56;;;;;;;58.72;16.88;;;;;;;;;;4865161;29;20051;-81
2021/12/14 14:46:51;;;;;;;58.65;17.52;;;;;;;;;;4867498;29;20379;-82
2021/12/14 14:49:19;;;;;;;73.03;19.05;;;;;;;;;;4855463;29;20667;-82
2021/12/14 14:51:48;;;;;;;55.58;17.75;;;;;;;;;;4867493;29;20077;-82
2021/12/14 14:54:33;;;;;;;80.30;20.88;;;;;;;;;;4865002;29;20041;-82
2021/12/14 14:57:00;;;;;;;92.65;22.73;;;;;;;;;;4847975;29;20300;-81
2021/12/14 14:59:26;;;;;;;89.82;25.02;;;;;;;;;;4848599;29;20048;-81
2021/12/14 15:01:53;;;;;;;86.82;24.23;;;;;;;;;;4849810;29;20068;-82
2021/12/14 15:04:20;;;;;;;75.55;22.67;;;;;;;;;;4866800;29;20698;-80
2021/12/14 15:06:47;;;;;;;60.53;19.90;;;;;;;;;;4849942;29;20053;-81
2021/12/14 15:09:19;;;;;;;66.07;20.77;;;;;;;;;;4854366;29;20040;-81